Time;durP1;ratioP1;P1;durP2;ratioP2;P2;SDS_P1;SDS_P2;PMS_P1;PMS_P2;Temp;Humidity;BMP_temperature;BMP_pressure;BME280_temperature;BME280_humidity;BME280_pressure;Samples;Min_cycle;Max_cycle;Signal;HPM_P1;HPM_P2
2021/10/12 00:00:43;;;;;;;34.90;14.35;;;8.10;99.90;;;;;;5046684;28;20197;-80
2021/10/12 00:03:09;;;;;;;;;;;8.10;99.90;;;;;;5047390;28;20033;-79
2021/10/12 00:05:34;;;;;;;14.10;7.72;;;8.00;99.90;;;;;;5047883;28;19963;-80
2021/10/12 00:08:00;;;;;;;;;;;8.00;99.90;;;;;;5047292;28;20072;-81
2021/10/12 00:10:25;;;;;;;19.20;6.07;;;8.00;99.90;;;;;;5046561;28;19947;-80
2021/10/12 00:12:51;;;;;;;;;;;8.00;99.90;;;;;;5046951;28;20029;-81
2021/10/12 00:15:17;;;;;;;12.95;5.70;;;8.00;99.90;;;;;;5047890;28;19942;-81
2021/10/12 00:17:42;;;;;;;13.25;5.20;;;8.00;99.90;;;;;;5047785;28;20064;-81
2021/10/12 00:20:09;;;;;;;12.05;5.38;;;8.00;99.90;;;;;;5047474;28;20543;-81
2021/10/12 00:22:35;;;;;;;16.30;6.70;;;8.10;99.90;;;;;;5046963;28;20029;-80
2021/10/12 00:25:01;;;;;;;17.75;6.15;;;8.10;99.90;;;;;;5046202;28;20043;-81
2021/10/12 00:27:27;;;;;;;;;;;8.10;99.90;;;;;;5047246;28;20371;-81
2021/10/12 00:29:52;;;;;;;17.63;6.35;;;8.10;99.90;;;;;;5047442;28;20439;-80
2021/10/12 00:32:18;;;;;;;12.38;4.97;;;8.10;99.90;;;;;;5047463;28;20112;-81
2021/10/12 00:34:44;;;;;;;;;;;8.10;99.90;;;;;;5046731;28;20120;-82
2021/10/12 00:37:12;;;;;;;14.38;5.38;;;8.10;99.90;;;;;;5047765;28;20392;-81
2021/10/12 00:39:39;;;;;;;13.25;4.93;;;8.20;99.90;;;;;;5047689;28;20056;-81
2021/10/12 00:42:04;;;;;;;10.40;5.38;;;8.20;99.90;;;;;;5047741;28;20021;-81
2021/10/12 00:44:30;;;;;;;;;;;8.30;99.90;;;;;;5047294;28;20033;-81
2021/10/12 00:46:56;;;;;;;12.20;5.43;;;8.40;99.90;;;;;;5046107;28;20670;-81
2021/10/12 00:49:22;;;;;;;;;;;8.40;99.90;;;;;;5048064;28;20429;-81
2021/10/12 00:51:48;;;;;;;12.65;4.57;;;8.50;99.90;;;;;;5047475;28;20340;-80
2021/10/12 00:54:14;;;;;;;;;;;8.50;99.90;;;;;;5045116;28;20033;-81
2021/10/12 00:56:39;;;;;;;11.80;5.22;;;8.50;99.90;;;;;;5047362;28;19909;-81
2021/10/12 00:59:06;;;;;;;;;;;8.60;99.90;;;;;;5047051;28;20044;-81
2021/10/12 01:01:32;;;;;;;13.00;5.45;;;8.60;99.90;;;;;;5045593;28;19912;-81
2021/10/12 01:03:58;;;;;;;;;;;8.60;99.90;;;;;;5047820;28;20028;-81
2021/10/12 01:06:25;;;;;;;12.38;5.20;;;8.60;99.90;;;;;;5045610;28;19962;-81
2021/10/12 01:08:50;;;;;;;13.57;5.05;;;8.60;99.90;;;;;;5045898;28;20082;-80
2021/10/12 01:11:16;;;;;;;;;;;8.70;99.90;;;;;;5047078;28;20041;-80
2021/10/12 01:13:41;;;;;;;13.50;4.95;;;8.60;99.90;;;;;;5045224;28;20007;-81
2021/10/12 01:16:07;;;;;;;;;;;8.60;99.90;;;;;;5047024;28;20029;-78
2021/10/12 01:18:33;;;;;;;12.93;5.32;;;8.60;99.90;;;;;;5045688;28;20495;-77
2021/10/12 01:20:59;;;;;;;;;;;8.70;99.90;;;;;;5047224;28;20017;-78
2021/10/12 01:23:24;;;;;;;11.68;4.95;;;8.70;99.90;;;;;;5045594;28;19909;-79
2021/10/12 01:25:50;;;;;;;;;;;8.70;99.90;;;;;;5045884;28;20078;-79
2021/10/12 01:28:16;;;;;;;12.00;5.65;;;8.80;99.90;;;;;;5044732;28;20111;-79
2021/10/12 01:30:42;;;;;;;19.05;8.45;;;8.80;99.90;;;;;;5045541;28;20131;-79
2021/10/12 01:33:08;;;;;;;;;;;8.80;99.90;;;;;;5047444;28;20093;-79
2021/10/12 01:35:34;;;;;;;12.45;6.60;;;8.70;99.90;;;;;;5046034;28;19909;-79
2021/10/12 01:38:00;;;;;;;21.33;7.63;;;8.70;99.90;;;;;;5046386;28;20238;-78
2021/10/12 01:40:26;;;;;;;;;;;8.70;99.90;;;;;;5045565;28;20821;-79
2021/10/12 01:42:54;;;;;;;16.77;6.88;;;8.70;99.90;;;;;;5046389;28;19908;-78
2021/10/12 01:45:20;;;;;;;17.63;7.18;;;8.70;99.90;;;;;;5046732;28;20032;-79
2021/10/12 01:47:46;;;;;;;;;;;8.70;99.90;;;;;;5046853;28;20113;-79
2021/10/12 01:50:12;;;;;;;16.95;5.55;;;8.70;99.90;;;;;;5045221;28;19935;-78
2021/10/12 01:52:39;;;;;;;16.02;5.03;;;8.70;99.90;;;;;;5044465;28;20053;-79
2021/10/12 01:55:06;;;;;;;10.68;5.07;;;8.70;99.90;;;;;;5044871;28;20025;-78
2021/10/12 01:57:32;;;;;;;11.25;5.68;;;8.70;99.90;;;;;;5045878;28;20108;-78
2021/10/12 01:59:58;;;;;;;;;;;8.70;99.90;;;;;;5046745;28;20474;-78
2021/10/12 02:02:24;;;;;;;11.60;5.57;;;8.70;99.90;;;;;;5045838;28;19909;-77
2021/10/12 02:04:50;;;;;;;15.10;5.80;;;8.60;99.90;;;;;;5050153;28;20094;-77
2021/10/12 02:07:16;;;;;;;;;;;8.60;99.90;;;;;;5051608;28;20338;-78
2021/10/12 02:09:41;;;;;;;9.88;5.72;;;8.60;99.90;;;;;;5050146;28;19980;-79
2021/10/12 02:12:07;;;;;;;;;;;8.60;99.90;;;;;;5048924;28;20048;-80
2021/10/12 02:14:33;;;;;;;13.02;6.63;;;8.50;99.90;;;;;;5048964;28;20316;-78
2021/10/12 02:16:58;;;;;;;16.67;7.10;;;8.50;99.90;;;;;;5050283;28;20116;-78
2021/10/12 02:19:24;;;;;;;23.80;8.13;;;8.50;99.90;;;;;;5049878;28;20044;-79
2021/10/12 02:21:50;;;;;;;20.02;7.53;;;8.50;99.90;;;;;;5050152;28;20040;-79
2021/10/12 02:24:15;;;;;;;;;;;8.50;99.90;;;;;;5050426;28;20039;-80
2021/10/12 02:26:41;;;;;;;11.63;6.50;;;8.50;99.90;;;;;;5048610;28;20399;-79
2021/10/12 02:29:07;;;;;;;;;;;8.50;99.90;;;;;;5048569;28;20032;-78
2021/10/12 02:31:32;;;;;;;15.38;6.07;;;8.50;99.90;;;;;;5048207;28;19998;-79
2021/10/12 02:33:58;;;;;;;;;;;8.50;99.90;;;;;;5050442;28;20387;-78
2021/10/12 02:36:24;;;;;;;11.95;5.85;;;8.50;99.90;;;;;;5049440;28;20396;-79
2021/10/12 02:38:49;;;;;;;;;;;8.60;99.90;;;;;;5050160;28;20684;-79
2021/10/12 02:41:15;;;;;;;11.55;6.40;;;8.60;99.90;;;;;;5049463;28;19908;-80
2021/10/12 02:43:41;;;;;;;;;;;8.60;99.90;;;;;;5049768;28;20507;-78
2021/10/12 02:46:07;;;;;;;15.85;6.28;;;8.60;99.90;;;;;;5049269;28;19909;-78
2021/10/12 02:48:32;;;;;;;;;;;8.50;99.90;;;;;;5048885;28;20124;-79
2021/10/12 02:50:58;;;;;;;18.30;6.70;;;8.50;99.90;;;;;;5048318;28;19912;-79
2021/10/12 02:53:24;;;;;;;;;;;8.50;99.90;;;;;;5047970;28;20126;-79
2021/10/12 02:55:49;;;;;;;19.23;6.90;;;8.40;99.90;;;;;;5049442;28;19904;-78
2021/10/12 02:58:15;;;;;;;;;;;8.50;99.90;;;;;;5048886;28;20037;-79
2021/10/12 03:00:41;;;;;;;17.73;6.97;;;8.40;99.90;;;;;;5048099;28;19909;-77
2021/10/12 03:03:07;;;;;;;;;;;8.40;99.90;;;;;;5048482;28;20043;-79
2021/10/12 03:05:33;;;;;;;14.27;6.18;;;8.50;99.90;;;;;;5049475;28;19908;-78
2021/10/12 03:07:58;;;;;;;;;;;8.50;99.90;;;;;;5050029;28;20160;-80
2021/10/12 03:10:24;;;;;;;14.95;6.35;;;8.50;99.90;;;;;;5047689;28;19950;-80
2021/10/12 03:12:50;;;;;;;19.15;6.75;;;8.60;99.90;;;;;;5047893;28;20047;-80
2021/10/12 03:15:15;;;;;;;;;;;8.60;99.90;;;;;;5048672;28;20157;-79
2021/10/12 03:17:41;;;;;;;17.55;6.65;;;8.50;99.90;;;;;;5047460;28;19966;-78
2021/10/12 03:20:06;;;;;;;;;;;8.40;99.90;;;;;;5049211;28;20037;-80
2021/10/12 03:22:32;;;;;;;13.45;6.43;;;8.40;99.90;;;;;;5048729;28;19974;-80
2021/10/12 03:24:58;;;;;;;12.45;6.43;;;8.40;99.90;;;;;;5047556;28;20043;-80
2021/10/12 03:27:23;;;;;;;;;;;8.40;99.90;;;;;;5049442;28;20029;-80
2021/10/12 03:29:49;;;;;;;15.65;6.60;;;8.30;99.90;;;;;;5049163;28;19916;-79
2021/10/12 03:32:15;;;;;;;24.05;7.97;;;8.20;99.90;;;;;;5048693;28;20748;-80
2021/10/12 03:34:41;;;;;;;14.93;6.90;;;8.30;99.90;;;;;;5047635;28;20035;-79
2021/10/12 03:37:07;;;;;;;16.95;7.63;;;8.20;99.90;;;;;;5047199;28;20151;-78
2021/10/12 03:39:32;;;;;;;;;;;8.20;99.90;;;;;;5049108;28;20096;-78
2021/10/12 03:41:58;;;;;;;19.23;7.85;;;8.20;99.90;;;;;;5048239;28;19995;-78
2021/10/12 03:44:24;;;;;;;;;;;8.20;99.90;;;;;;5048315;28;20056;-79
2021/10/12 03:46:50;;;;;;;19.63;7.55;;;8.10;99.90;;;;;;5048531;28;19908;-80
2021/10/12 03:49:16;;;;;;;17.45;8.63;;;8.10;99.90;;;;;;5048397;28;20029;-78
2021/10/12 03:51:43;;;;;;;;;;;8.00;99.90;;;;;;5048785;28;20089;-79
2021/10/12 03:54:10;;;;;;;13.63;7.45;;;8.00;99.90;;;;;;5048499;28;19928;-80
2021/10/12 03:56:36;;;;;;;18.13;7.97;;;7.90;99.90;;;;;;5048164;28;20037;-79
2021/10/12 03:59:02;;;;;;;;;;;7.90;99.90;;;;;;5048610;28;20041;-78
2021/10/12 04:01:27;;;;;;;14.57;8.07;;;8.00;99.90;;;;;;5048451;28;19923;-79
2021/10/12 04:03:53;;;;;;;;;;;7.90;99.90;;;;;;5047284;28;20029;-79
2021/10/12 04:06:20;;;;;;;14.60;7.82;;;7.80;99.90;;;;;;5047755;28;19916;-79
2021/10/12 04:08:45;;;;;;;16.00;8.60;;;7.80;99.90;;;;;;5048222;28;20025;-78
2021/10/12 04:11:11;;;;;;;;;;;7.80;99.90;;;;;;5046236;28;20033;-79
2021/10/12 04:13:37;;;;;;;16.83;10.30;;;7.80;99.90;;;;;;5047980;28;19954;-82
2021/10/12 04:16:03;;;;;;;23.42;12.20;;;7.80;99.90;;;;;;5046147;28;20817;-79
2021/10/12 04:18:28;;;;;;;21.55;9.52;;;7.80;99.90;;;;;;5046638;28;20063;-78
2021/10/12 04:20:54;;;;;;;;;;;7.80;99.90;;;;;;5048396;28;20024;-78
2021/10/12 04:23:20;;;;;;;19.67;8.98;;;7.80;99.90;;;;;;5047649;28;19970;-79
2021/10/12 04:25:46;;;;;;;21.42;9.30;;;7.90;99.90;;;;;;5045890;28;20067;-80
2021/10/12 04:28:13;;;;;;;19.15;9.02;;;7.90;99.90;;;;;;5046819;28;20044;-79
2021/10/12 04:30:40;;;;;;;27.30;9.50;;;7.90;99.90;;;;;;5046275;28;20092;-77
2021/10/12 04:33:07;;;;;;;20.00;9.68;;;7.90;99.90;;;;;;5047595;28;20028;-80
2021/10/12 04:35:33;;;;;;;22.98;9.10;;;7.90;99.90;;;;;;5046500;28;20097;-80
2021/10/12 04:37:59;;;;;;;20.85;9.05;;;7.90;99.90;;;;;;5047395;28;20143;-80
2021/10/12 04:40:25;;;;;;;;;;;7.90;99.90;;;;;;5046806;28;20580;-79
2021/10/12 04:42:52;;;;;;;11.82;7.53;;;7.90;99.90;;;;;;5046452;28;20301;-80
2021/10/12 04:45:17;;;;;;;18.15;8.52;;;7.90;99.90;;;;;;5047477;28;20138;-79
2021/10/12 04:47:43;;;;;;;;;;;7.90;99.90;;;;;;5047830;28;20486;-80
2021/10/12 04:50:09;;;;;;;12.98;7.82;;;7.90;99.90;;;;;;5046001;28;19954;-79
2021/10/12 04:52:35;;;;;;;14.18;8.20;;;7.90;99.90;;;;;;5046660;28;20449;-80
2021/10/12 04:55:01;;;;;;;;;;;7.80;99.90;;;;;;5047130;28;20029;-77
2021/10/12 04:57:27;;;;;;;18.30;8.75;;;7.80;99.90;;;;;;5045640;28;19994;-79
2021/10/12 04:59:52;;;;;;;;;;;7.80;99.90;;;;;;5047406;28;20502;-79
2021/10/12 05:02:19;;;;;;;18.02;8.80;;;7.80;99.90;;;;;;5045064;28;19908;-79
2021/10/12 05:04:46;;;;;;;19.45;8.60;;;7.80;99.90;;;;;;5046019;28;20486;-79
2021/10/12 05:07:11;;;;;;;;;;;7.80;99.90;;;;;;5047032;28;20028;-80
2021/10/12 05:09:37;;;;;;;15.35;8.48;;;7.90;99.90;;;;;;5046944;28;19916;-79
2021/10/12 05:12:03;;;;;;;18.63;8.95;;;7.90;99.90;;;;;;5045437;28;20136;-78
2021/10/12 05:14:29;;;;;;;19.83;9.93;;;7.90;99.90;;;;;;5046191;28;20025;-80
2021/10/12 05:16:56;;;;;;;;;;;8.10;99.90;;;;;;5045832;28;20394;-80
2021/10/12 05:19:24;;;;;;;16.77;8.33;;;8.10;99.90;;;;;;5047126;28;19916;-80
2021/10/12 05:21:49;;;;;;;16.70;8.45;;;8.20;99.90;;;;;;5045554;28;20401;-80
2021/10/12 05:24:15;;;;;;;;;;;8.20;99.90;;;;;;5047265;28;20025;-79
2021/10/12 05:26:41;;;;;;;19.38;9.40;;;8.30;99.90;;;;;;5044821;28;20514;-81
2021/10/12 05:29:12;;;;;;;18.98;9.52;;;8.30;99.90;;;;;;5046734;28;20058;-79
2021/10/12 05:31:40;;;;;;;27.20;9.82;;;8.30;99.90;;;;;;5045370;28;20052;-79
2021/10/12 05:34:06;;;;;;;22.90;10.20;;;8.40;99.90;;;;;;5046680;28;20028;-79
2021/10/12 05:36:32;;;;;;;14.90;8.75;;;8.40;99.90;;;;;;5046657;28;20021;-80
2021/10/12 05:38:58;;;;;;;;;;;8.30;99.90;;;;;;5046258;28;20104;-79
2021/10/12 05:41:25;;;;;;;19.23;8.35;;;8.40;99.90;;;;;;5044921;28;20011;-81
2021/10/12 05:43:51;;;;;;;22.13;9.60;;;8.40;99.90;;;;;;5045644;28;20043;-79
2021/10/12 05:46:18;;;;;;;;;;;8.40;99.90;;;;;;5046849;28;20037;-80
2021/10/12 05:48:44;;;;;;;16.63;8.68;;;8.50;99.90;;;;;;5046512;28;19995;-79
2021/10/12 05:51:11;;;;;;;15.52;9.43;;;8.50;99.90;;;;;;5044815;28;20182;-79
2021/10/12 05:56:08;;;;;;;18.17;8.98;;;8.50;99.90;;;;;;5045892;28;20493;-80
2021/10/12 05:58:49;;;;;;;16.80;9.20;;;8.50;99.90;;;;;;5044622;28;20037;-79
2021/10/12 06:01:16;;;;;;;21.80;10.68;;;8.50;99.90;;;;;;5046149;28;20398;-81
2021/10/12 06:03:42;;;;;;;14.35;9.38;;;8.60;99.90;;;;;;5044296;28;20056;-80
2021/10/12 06:06:08;;;;;;;;;;;8.60;99.90;;;;;;5044607;28;20070;-80
2021/10/12 06:08:34;;;;;;;20.20;11.07;;;8.60;99.90;;;;;;5046322;28;19912;-80
2021/10/12 06:11:00;;;;;;;;;;;8.70;99.90;;;;;;5045923;28;20044;-78
2021/10/12 06:13:27;;;;;;;22.60;9.82;;;8.80;99.90;;;;;;5046432;28;19915;-80
2021/10/12 06:15:53;;;;;;;16.52;10.68;;;8.80;99.90;;;;;;5046089;28;20056;-80
2021/10/12 06:18:19;;;;;;;16.73;10.63;;;8.90;99.90;;;;;;5044781;28;20116;-79
2021/10/12 06:20:45;;;;;;;;;;;9.00;99.90;;;;;;5046511;28;20032;-80
2021/10/12 06:23:11;;;;;;;26.55;12.38;;;9.10;99.90;;;;;;5044970;28;20312;-80
2021/10/12 06:25:37;;;;;;;;;;;9.20;99.90;;;;;;5043966;28;20054;-80
2021/10/12 06:28:04;;;;;;;22.67;13.43;;;9.20;99.90;;;;;;5045460;28;19958;-80
2021/10/12 06:30:30;;;;;;;20.05;11.73;;;9.30;99.90;;;;;;5045847;28;20032;-80
2021/10/12 06:32:55;;;;;;;;;;;9.60;99.90;;;;;;5045311;28;20025;-79
2021/10/12 06:35:21;;;;;;;21.27;12.65;;;9.90;99.90;;;;;;5045871;28;19909;-79
2021/10/12 06:37:48;;;;;;;24.98;12.05;;;10.30;99.90;;;;;;5044555;28;20041;-79
2021/10/12 06:40:14;;;;;;;23.92;13.82;;;10.70;99.90;;;;;;5045340;28;20401;-79
2021/10/12 06:42:40;;;;;;;;;;;11.00;99.90;;;;;;5044614;28;20040;-79
2021/10/12 06:45:06;;;;;;;30.27;15.23;;;11.40;99.90;;;;;;5045394;28;19916;-80
2021/10/12 06:47:31;;;;;;;;;;;11.80;99.90;;;;;;5046392;28;20091;-79
2021/10/12 06:49:57;;;;;;;23.48;13.23;;;12.30;99.90;;;;;;5044222;28;20397;-79
2021/10/12 06:52:23;;;;;;;;;;;12.50;99.90;;;;;;5047326;28;20680;-79
2021/10/12 06:54:50;;;;;;;22.45;13.20;;;12.60;99.40;;;;;;5048754;28;19955;-79
2021/10/12 06:57:16;;;;;;;25.00;13.65;;;12.70;98.80;;;;;;5049607;28;20489;-78
2021/10/12 06:59:41;;;;;;;;;;;12.60;98.90;;;;;;5047842;28;20090;-78
2021/10/12 07:02:07;;;;;;;23.67;15.50;;;12.60;98.80;;;;;;5047571;28;19999;-78
2021/10/12 07:04:33;;;;;;;;;;;12.70;98.50;;;;;;5048387;28;20025;-78
2021/10/12 07:06:58;;;;;;;29.23;16.45;;;12.70;98.30;;;;;;5048012;28;20308;-79
2021/10/12 07:09:24;;;;;;;;;;;12.80;98.10;;;;;;5046663;28;20017;-78
2021/10/12 07:11:50;;;;;;;24.90;14.27;;;12.80;97.70;;;;;;5046713;28;19912;-78
2021/10/12 07:14:15;;;;;;;;;;;12.80;97.50;;;;;;5048685;28;20032;-78
2021/10/12 07:16:41;;;;;;;27.08;14.48;;;12.80;97.30;;;;;;5047571;28;19908;-79
2021/10/12 07:19:06;;;;;;;;;;;12.80;97.80;;;;;;5049517;28;20037;-79
2021/10/12 07:21:33;;;;;;;25.13;14.73;;;12.70;98.00;;;;;;5047931;28;19909;-79
2021/10/12 07:23:59;;;;;;;25.00;14.70;;;12.60;97.90;;;;;;5048168;28;20111;-78
2021/10/12 07:26:25;;;;;;;22.88;14.05;;;12.50;98.10;;;;;;5048872;28;20025;-78
2021/10/12 07:28:51;;;;;;;;;;;12.50;98.40;;;;;;5049251;28;20033;-79
2021/10/12 07:31:17;;;;;;;18.98;12.55;;;12.50;98.50;;;;;;5047197;28;19916;-79
2021/10/12 07:33:42;;;;;;;;;;;12.50;98.40;;;;;;5048290;28;20036;-80
2021/10/12 07:36:08;;;;;;;23.90;12.38;;;12.60;98.00;;;;;;5048881;28;19908;-79
2021/10/12 07:38:34;;;;;;;;;;;12.50;98.20;;;;;;5048144;28;20116;-79
2021/10/12 07:40:59;;;;;;;31.30;14.55;;;12.60;98.30;;;;;;5048122;28;20050;-79
2021/10/12 07:43:25;;;;;;;;;;;12.70;98.30;;;;;;5048823;28;20028;-79
2021/10/12 07:45:51;;;;;;;26.48;15.70;;;12.90;98.00;;;;;;5048539;28;19915;-79
2021/10/12 07:48:17;;;;;;;;;;;13.20;97.90;;;;;;5048754;28;20033;-79
2021/10/12 07:50:43;;;;;;;34.38;16.55;;;13.60;97.10;;;;;;5048495;28;19909;-79
2021/10/12 07:53:10;;;;;;;30.77;15.38;;;13.90;96.30;;;;;;5047661;28;20045;-80
2021/10/12 07:55:49;;;;;;;28.02;15.10;;;14.20;95.30;;;;;;5048479;28;20037;-79
2021/10/12 07:58:14;;;;;;;25.52;14.10;;;14.50;94.70;;;;;;5048022;28;20029;-79
2021/10/12 08:00:40;;;;;;;;;;;15.10;93.50;;;;;;5047205;28;20032;-79
2021/10/12 08:03:07;;;;;;;30.88;13.18;;;15.50;91.70;;;;;;5048079;28;19930;-78
2021/10/12 08:05:33;;;;;;;28.50;14.80;;;15.70;90.60;;;;;;5048423;28;20167;-80
2021/10/12 08:07:59;;;;;;;32.35;12.35;;;15.60;90.30;;;;;;5046084;28;20025;-79
2021/10/12 08:10:26;;;;;;;20.27;11.32;;;15.60;88.30;;;;;;5046785;28;20115;-79
2021/10/12 08:12:56;;;;;;;18.50;11.27;;;15.30;88.20;;;;;;5048006;28;20021;-80
2021/10/12 08:15:22;;;;;;;20.67;12.13;;;15.10;88.00;;;;;;5047961;28;20039;-79
2021/10/12 08:17:48;;;;;;;26.20;13.68;;;14.80;86.80;;;;;;5046785;28;20116;-79
2021/10/12 08:20:14;;;;;;;18.45;13.02;;;14.70;88.20;;;;;;5047416;28;20037;-80
2021/10/12 08:22:41;;;;;;;23.17;15.07;;;14.80;87.60;;;;;;5046127;28;20803;-80
2021/10/12 08:25:08;;;;;;;25.55;15.15;;;15.00;86.50;;;;;;5047887;28;20060;-79
2021/10/12 08:27:35;;;;;;;27.75;15.50;;;14.80;85.20;;;;;;5046223;28;20028;-79
2021/10/12 08:30:00;;;;;;;24.35;12.90;;;14.60;87.00;;;;;;5046355;28;20798;-79
2021/10/12 08:32:26;;;;;;;;;;;14.40;85.30;;;;;;5047598;28;20049;-78
2021/10/12 08:34:52;;;;;;;22.80;12.82;;;14.50;87.50;;;;;;5047661;28;19909;-79
2021/10/12 08:37:17;;;;;;;16.92;11.25;;;14.70;84.90;;;;;;5047691;28;20060;-78
2021/10/12 08:39:44;;;;;;;;;;;14.60;84.80;;;;;;5047120;28;20487;-79
2021/10/12 08:42:29;;;;;;;26.77;11.90;;;14.80;84.60;;;;;;5045481;28;19905;-80
2021/10/12 08:45:00;;;;;;;28.02;14.65;;;14.90;83.20;;;;;;5045704;28;20040;-79
2021/10/12 08:47:28;;;;;;;34.78;15.82;;;14.90;83.10;;;;;;5045596;28;20509;-79
2021/10/12 08:49:54;;;;;;;28.02;13.48;;;15.00;82.20;;;;;;5047154;28;20401;-79
2021/10/12 08:52:21;;;;;;;19.58;11.77;;;15.40;80.90;;;;;;5046500;28;20041;-79
2021/10/12 08:54:48;;;;;;;22.23;10.65;;;15.70;78.20;;;;;;5046564;28;20033;-79
2021/10/12 08:57:37;;;;;;;20.67;11.65;;;16.30;78.10;;;;;;5046408;28;20128;-79
2021/10/12 09:00:16;;;;;;;25.00;10.75;;;16.60;75.70;;;;;;5047209;28;20106;-78
2021/10/12 09:03:19;;;;;;;18.13;10.80;;;17.10;73.00;;;;;;5046885;28;20512;-78
2021/10/12 09:05:53;;;;;;;25.92;10.13;;;17.40;68.40;;;;;;5047207;28;20035;-80
2021/10/12 09:08:25;;;;;;;25.27;9.90;;;17.30;68.10;;;;;;5044628;28;20060;-78
2021/10/12 09:10:51;;;;;;;16.02;9.75;;;17.10;68.10;;;;;;5045321;28;20486;-79
2021/10/12 09:13:17;;;;;;;26.88;9.65;;;17.00;67.80;;;;;;5044844;28;20029;-79
2021/10/12 09:16:01;;;;;;;19.95;10.45;;;16.60;68.90;;;;;;5046566;28;20040;-78
2021/10/12 09:18:52;;;;;;;17.35;8.68;;;16.60;69.90;;;;;;5046656;28;20045;-78
2021/10/12 09:21:28;;;;;;;18.75;9.85;;;16.60;69.00;;;;;;5046163;28;20497;-79
2021/10/12 09:24:08;;;;;;;;;;;17.00;68.20;;;;;;5046164;28;20706;-78
2021/10/12 09:26:39;;;;;;;19.70;9.68;;;17.00;67.20;;;;;;5046007;28;19915;-79
2021/10/12 09:29:24;;;;;;;16.75;9.43;;;16.90;68.30;;;;;;5045939;28;20059;-78
2021/10/12 09:31:53;;;;;;;22.25;10.05;;;17.00;69.90;;;;;;5044495;28;20021;-80
2021/10/12 09:34:19;;;;;;;18.02;9.43;;;17.50;69.60;;;;;;5045377;28;20040;-78
2021/10/12 09:36:49;;;;;;;22.40;10.48;;;18.10;67.60;;;;;;5043876;28;20021;-79
2021/10/12 09:39:18;;;;;;;22.02;9.63;;;18.20;64.00;;;;;;5043849;28;20392;-80
2021/10/12 09:41:54;;;;;;;21.77;9.10;;;18.00;63.40;;;;;;5045713;28;20107;-79
2021/10/12 09:44:20;;;;;;;;;;;18.10;62.90;;;;;;5045544;28;20047;-78
2021/10/12 09:46:51;;;;;;;18.33;8.33;;;18.00;61.70;;;;;;5041718;28;19913;-77
2021/10/12 09:49:22;;;;;;;22.15;9.63;;;18.10;61.40;;;;;;5041363;28;20037;-77
2021/10/12 09:51:58;;;;;;;24.83;10.45;;;18.20;60.80;;;;;;5045145;28;20033;-79
2021/10/12 09:54:33;;;;;;;18.23;9.20;;;18.50;61.00;;;;;;5043214;28;20053;-78
2021/10/12 09:57:01;;;;;;;36.67;10.20;;;18.50;59.80;;;;;;5034838;28;20916;-77
2021/10/12 09:59:28;;;;;;;20.90;9.27;;;17.80;60.90;;;;;;5043302;28;20033;-77
2021/10/12 10:01:55;;;;;;;17.30;9.27;;;17.40;62.80;;;;;;5039511;28;20335;-78
2021/10/12 10:04:22;;;;;;;17.88;9.40;;;17.00;63.30;;;;;;5043581;28;20040;-77
2021/10/12 10:06:56;;;;;;;19.77;9.93;;;16.50;65.30;;;;;;5042724;28;20040;-79
2021/10/12 10:09:23;;;;;;;25.15;13.68;;;16.20;66.20;;;;;;5040370;28;20037;-78
2021/10/12 10:11:50;;;;;;;20.60;10.73;;;15.80;66.80;;;;;;5043637;28;20041;-78
2021/10/12 10:14:17;;;;;;;25.55;13.23;;;15.90;67.70;;;;;;5044648;28;20108;-77
2021/10/12 10:16:45;;;;;;;35.65;12.98;;;15.70;67.80;;;;;;5041300;28;20726;-79
2021/10/12 10:19:24;;;;;;;22.17;11.05;;;15.50;69.00;;;;;;5038720;28;20071;-78
2021/10/12 10:21:50;;;;;;;21.55;11.25;;;15.50;69.30;;;;;;5044797;28;20040;-77
2021/10/12 10:24:35;;;;;;;;;;;15.30;71.10;;;;;;5041576;28;20029;-78
2021/10/12 10:27:01;;;;;;;29.05;11.30;;;15.10;71.30;;;;;;5045319;28;19920;-78
2021/10/12 10:29:37;;;;;;;22.27;12.45;;;14.90;72.20;;;;;;5043040;28;20037;-79
2021/10/12 10:32:16;;;;;;;22.60;12.77;;;15.00;72.50;;;;;;5048120;28;20585;-79
2021/10/12 10:34:43;;;;;;;23.55;12.98;;;15.00;72.30;;;;;;5045179;28;20367;-80
2021/10/12 10:37:18;;;;;;;24.98;13.93;;;14.90;73.00;;;;;;5047966;28;20513;-79
2021/10/12 10:39:48;;;;;;;25.10;11.68;;;14.90;73.30;;;;;;5046969;28;20069;-80
2021/10/12 10:42:26;;;;;;;21.00;11.80;;;15.10;71.80;;;;;;5048331;28;20032;-79
2021/10/12 10:44:56;;;;;;;23.40;11.07;;;14.90;72.70;;;;;;5049375;28;20037;-79
2021/10/12 10:47:40;;;;;;;23.13;10.45;;;14.90;73.40;;;;;;5048802;28;20025;-79
2021/10/12 10:50:27;;;;;;;24.95;10.50;;;14.80;73.50;;;;;;5048415;28;20716;-79
2021/10/12 10:53:00;;;;;;;18.67;11.07;;;14.90;73.50;;;;;;5049041;28;20120;-79
2021/10/12 10:55:37;;;;;;;21.63;14.00;;;14.90;74.20;;;;;;5049615;28;20028;-80
2021/10/12 10:58:20;;;;;;;28.40;11.88;;;14.80;73.90;;;;;;5049472;28;20116;-79
2021/10/12 11:00:52;;;;;;;18.42;11.02;;;14.80;74.40;;;;;;5049639;28;20116;-79
2021/10/12 11:03:30;;;;;;;25.45;11.30;;;14.80;73.70;;;;;;5047899;28;20051;-80
2021/10/12 11:05:59;;;;;;;18.75;10.82;;;15.00;73.40;;;;;;5047722;28;20506;-80
2021/10/12 11:08:29;;;;;;;18.60;10.48;;;15.00;72.80;;;;;;5047671;28;20025;-79
2021/10/12 11:11:00;;;;;;;19.17;10.23;;;15.10;72.70;;;;;;5048983;28;20083;-79
2021/10/12 11:13:32;;;;;;;21.08;10.15;;;15.00;71.60;;;;;;5048835;28;20035;-79
2021/10/12 11:15:59;;;;;;;33.83;10.52;;;14.90;72.60;;;;;;5049217;28;20117;-80
2021/10/12 11:18:24;;;;;;;20.73;9.38;;;15.10;72.30;;;;;;5048476;28;20037;-79
2021/10/12 11:20:53;;;;;;;;;;;15.10;71.10;;;;;;5049607;28;20029;-79
2021/10/12 11:23:28;;;;;;;14.45;8.65;;;15.20;71.20;;;;;;5048854;28;19905;-80
2021/10/12 11:26:14;;;;;;;20.80;9.65;;;15.20;70.80;;;;;;5048857;28;20024;-79
2021/10/12 11:28:52;;;;;;;28.38;9.65;;;15.20;70.40;;;;;;5048796;28;20393;-80
2021/10/12 11:31:29;;;;;;;18.58;10.35;;;15.20;70.30;;;;;;5048488;28;20032;-80
2021/10/12 11:33:57;;;;;;;20.30;10.00;;;15.10;70.80;;;;;;5047313;28;20025;-80
2021/10/12 11:36:29;;;;;;;19.30;9.38;;;15.00;70.70;;;;;;5046848;28;20513;-80
2021/10/12 11:39:00;;;;;;;16.50;9.60;;;15.00;72.00;;;;;;5046625;28;20041;-79
2021/10/12 11:41:30;;;;;;;20.58;10.20;;;15.00;71.50;;;;;;5047104;28;20087;-80
2021/10/12 11:43:58;;;;;;;21.33;9.82;;;15.10;71.00;;;;;;5048684;28;20033;-80
2021/10/12 11:46:25;;;;;;;19.98;10.95;;;15.20;71.40;;;;;;5047000;28;20040;-80
2021/10/12 11:48:51;;;;;;;19.85;9.80;;;15.10;71.40;;;;;;5046773;28;20037;-78
2021/10/12 11:51:20;;;;;;;30.67;9.55;;;14.90;72.50;;;;;;5046741;28;20056;-79
2021/10/12 11:53:47;;;;;;;17.90;10.77;;;14.80;73.30;;;;;;5046964;28;20502;-79
2021/10/12 11:56:14;;;;;;;28.55;10.55;;;14.80;73.80;;;;;;5048211;28;20029;-80
2021/10/12 11:58:41;;;;;;;22.10;9.48;;;14.90;74.70;;;;;;5046538;28;20383;-79
2021/10/12 12:01:12;;;;;;;16.85;9.45;;;14.90;73.30;;;;;;5047744;28;20028;-79
2021/10/12 12:03:41;;;;;;;15.65;9.15;;;15.00;73.10;;;;;;5046993;28;20412;-79
2021/10/12 12:06:07;;;;;;;19.48;8.75;;;15.20;72.50;;;;;;5047529;28;20032;-77
2021/10/12 12:08:37;;;;;;;16.63;8.55;;;15.20;72.00;;;;;;5048036;28;20478;-79
2021/10/12 12:11:03;;;;;;;17.58;9.10;;;15.40;71.80;;;;;;5046388;28;20033;-80
2021/10/12 12:13:30;;;;;;;24.73;10.00;;;15.40;70.40;;;;;;5048057;28;20033;-80
2021/10/12 12:15:57;;;;;;;24.65;9.15;;;15.20;71.00;;;;;;5048154;28;20032;-81
2021/10/12 12:18:24;;;;;;;19.77;8.82;;;15.10;72.50;;;;;;5047778;28;20029;-81
2021/10/12 12:20:58;;;;;;;23.98;9.00;;;15.00;72.70;;;;;;5045917;28;20040;-81
2021/10/12 12:23:38;;;;;;;24.30;8.70;;;15.00;72.20;;;;;;5046598;28;20528;-81
2021/10/12 12:26:05;;;;;;;17.17;9.10;;;15.10;72.00;;;;;;5047425;28;20025;-80
2021/10/12 12:28:32;;;;;;;30.27;9.40;;;15.10;72.00;;;;;;5047722;28;20087;-77
2021/10/12 12:30:58;;;;;;;21.05;9.05;;;15.00;72.10;;;;;;5047695;28;20029;-78
2021/10/12 12:33:24;;;;;;;23.95;9.55;;;14.70;73.00;;;;;;5046592;28;20466;-78
2021/10/12 12:35:51;;;;;;;;;;;14.50;73.40;;;;;;5046298;28;20025;-79
2021/10/12 12:38:28;;;;;;;18.45;9.63;;;14.30;74.20;;;;;;5046043;28;19913;-78
2021/10/12 12:40:55;;;;;;;18.73;9.60;;;14.20;74.70;;;;;;5047358;28;20091;-78
2021/10/12 12:43:23;;;;;;;15.05;8.63;;;14.00;75.40;;;;;;5047442;28;20116;-78
2021/10/12 12:46:12;;;;;;;16.77;8.88;;;13.80;76.10;;;;;;5047161;28;20520;-83
2021/10/12 12:48:38;;;;;;;19.75;9.25;;;13.80;77.20;;;;;;5046068;28;20563;-79
2021/10/12 12:51:08;;;;;;;15.43;9.48;;;13.70;77.70;;;;;;5047046;28;20039;-79
2021/10/12 12:53:45;;;;;;;15.32;9.32;;;13.70;78.00;;;;;;5046878;28;20114;-78
2021/10/12 12:56:14;;;;;;;19.50;9.52;;;13.60;77.70;;;;;;5047102;28;20071;-79
2021/10/12 12:58:49;;;;;;;17.40;9.60;;;13.60;78.40;;;;;;5045705;28;20072;-79
2021/10/12 13:01:19;;;;;;;15.85;9.23;;;13.70;77.60;;;;;;5046160;28;20033;-78
2021/10/12 13:03:51;;;;;;;18.25;8.40;;;13.80;77.40;;;;;;5046816;28;20055;-79
2021/10/12 13:06:17;;;;;;;18.00;9.15;;;14.00;76.50;;;;;;5045243;28;20040;-79